Terminal Aerodrome Forecast
Issued by NWS

Home | Current Version | Previous Version | Text Only | Print | Product List | Glossary On
Versions: 1 2 3 4 5 6 7 8 9 10 11 12 13 14 15
361
FTUS44 KTSA 240520
TAFMLC
TAF
KMLC 240520Z 2406/2506 30004KT P6SM SCT100 SCT250
     FM241500 33012KT P6SM SCT050 SCT250
     FM241800 34012G21KT P6SM SCT250
     FM250000 34003KT P6SM SKC=

USA.gov is the U.S. government's official web portal to all federal, state and local government web resources and services.